createdAt,value
2023-10-09T00:00:34.237Z,4.10
2023-10-09T00:03:02.690Z,3.95
2023-10-09T00:05:41.399Z,3.53
2023-10-09T00:08:13.820Z,4.78
2023-10-09T00:10:50.535Z,3.22
2023-10-09T00:13:17.702Z,3.65
2023-10-09T00:15:44.912Z,3.80
2023-10-09T00:18:13.805Z,3.90
2023-10-09T00:23:27.068Z,3.80
2023-10-09T00:26:09.735Z,3.70
2023-10-09T00:28:44.824Z,4.00
2023-10-09T00:31:17.613Z,4.00
2023-10-09T00:33:44.881Z,3.58
2023-10-09T00:36:13.460Z,3.53
2023-10-09T00:38:50.832Z,3.53
2023-10-09T00:41:21.801Z,4.00
2023-10-09T00:43:51.422Z,3.70
2023-10-09T00:46:21.885Z,4.47
2023-10-09T00:48:51.142Z,3.80
2023-10-09T00:51:20.251Z,4.07
2023-10-09T00:53:52.836Z,6.85
2023-10-09T00:56:27.302Z,4.05
2023-10-09T00:59:16.116Z,4.10
2023-10-09T01:01:58.788Z,4.15
2023-10-09T01:04:30.200Z,4.45
2023-10-09T01:07:31.331Z,5.88
2023-10-09T01:12:25.266Z,4.13
2023-10-09T01:14:56.744Z,3.65
2023-10-09T01:17:37.873Z,3.92
2023-10-09T01:20:06.765Z,4.32
2023-10-09T01:22:33.811Z,3.72
2023-10-09T01:25:00.849Z,3.90
2023-10-09T01:27:34.011Z,4.10
2023-10-09T01:30:17.920Z,5.18
2023-10-09T01:32:47.543Z,3.67
2023-10-09T01:35:23.289Z,3.78
2023-10-09T01:37:52.665Z,4.07
2023-10-09T01:40:38.514Z,3.90
2023-10-09T01:43:05.918Z,3.83
2023-10-09T01:45:43.768Z,4.07
2023-10-09T01:48:13.670Z,3.83
2023-10-09T01:50:43.477Z,3.80
2023-10-09T01:55:41.772Z,4.60
2023-10-09T01:58:25.865Z,4.45
2023-10-09T02:01:03.999Z,4.97
2023-10-09T02:03:32.434Z,4.82
2023-10-09T02:06:04.195Z,4.43
2023-10-09T02:08:31.476Z,5.00
2023-10-09T02:10:58.527Z,4.63
2023-10-09T02:13:33.047Z,5.05
2023-10-09T02:16:14.681Z,4.40
2023-10-09T02:18:54.639Z,5.28
2023-10-09T02:24:07.658Z,4.40
2023-10-09T02:26:34.861Z,4.05
2023-10-09T02:29:06.072Z,4.80
2023-10-09T02:31:42.605Z,4.78
2023-10-09T02:34:09.821Z,4.85
2023-10-09T02:36:43.919Z,5.25
2023-10-09T02:39:30.515Z,4.57
2023-10-09T02:42:13.873Z,6.35
2023-10-09T02:44:47.689Z,4.82
2023-10-09T02:47:26.611Z,4.25
2023-10-09T02:49:53.701Z,4.38
2023-10-09T02:52:21.086Z,4.10
2023-10-09T02:54:48.723Z,4.45
2023-10-09T02:57:25.586Z,4.32
2023-10-09T02:59:53.004Z,4.80
2023-10-09T03:02:20.634Z,4.70
2023-10-09T03:04:47.848Z,5.22
2023-10-09T03:07:15.494Z,4.45
2023-10-09T03:09:42.753Z,4.55
2023-10-09T03:12:13.827Z,5.38
2023-10-09T03:14:42.870Z,4.47
2023-10-09T03:17:13.617Z,4.80
2023-10-09T03:19:41.606Z,4.22
2023-10-09T03:22:12.125Z,4.55
2023-10-09T03:24:48.772Z,4.60
2023-10-09T03:27:17.355Z,4.85
2023-10-09T03:29:50.532Z,4.80
2023-10-09T03:32:17.816Z,4.40
2023-10-09T03:34:45.072Z,4.40
2023-10-09T03:37:45.569Z,4.85
2023-10-09T03:40:18.881Z,5.07
2023-10-09T03:42:46.466Z,5.35
2023-10-09T03:45:32.911Z,4.47
2023-10-09T03:51:10.466Z,4.32
2023-10-09T03:53:38.163Z,4.35
2023-10-09T03:56:16.968Z,4.35
2023-10-09T03:58:46.318Z,4.63
2023-10-09T04:01:23.997Z,5.70
2023-10-09T04:04:01.479Z,4.60
2023-10-09T04:06:32.142Z,4.93
2023-10-09T04:09:00.462Z,5.57
2023-10-09T04:11:27.574Z,5.45
2023-10-09T04:13:54.935Z,5.10
2023-10-09T04:16:34.082Z,5.85
2023-10-09T04:19:08.343Z,5.13
2023-10-09T04:21:35.862Z,5.72
2023-10-09T04:24:13.510Z,5.30
2023-10-09T04:26:57.513Z,5.22
2023-10-09T04:29:28.586Z,4.43
2023-10-09T04:31:57.825Z,5.18
2023-10-09T04:34:37.970Z,5.07
2023-10-09T04:37:14.984Z,5.32
2023-10-09T04:40:02.505Z,5.45
2023-10-09T04:42:38.020Z,6.35
2023-10-09T04:45:06.446Z,5.00
2023-10-09T04:47:38.121Z,5.10
2023-10-09T04:50:36.653Z,5.05
2023-10-09T04:53:16.319Z,4.85
2023-10-09T04:55:56.554Z,5.03
2023-10-09T04:58:27.386Z,6.18
2023-10-09T05:01:01.438Z,4.82
2023-10-09T05:03:49.203Z,5.00
2023-10-09T05:06:22.964Z,4.63
2023-10-09T05:08:51.026Z,5.35
2023-10-09T05:11:54.597Z,6.13
2023-10-09T05:14:28.818Z,6.82
2023-10-09T05:16:56.477Z,5.40
2023-10-09T05:19:35.105Z,5.13
2023-10-09T05:22:08.987Z,4.63
2023-10-09T05:24:49.045Z,5.20
2023-10-09T05:30:14.630Z,4.78
2023-10-09T05:32:49.801Z,5.07
2023-10-09T05:35:17.340Z,4.90
2023-10-09T05:37:47.717Z,5.03
2023-10-09T05:40:18.642Z,5.28
2023-10-09T05:42:48.076Z,5.88
2023-10-09T05:45:20.265Z,4.85
2023-10-09T05:48:28.379Z,5.20
2023-10-09T05:51:10.601Z,4.47
2023-10-09T05:53:46.733Z,5.13
2023-10-09T05:56:33.377Z,4.47
2023-10-09T05:59:19.441Z,5.57
2023-10-09T06:01:52.449Z,5.53
2023-10-09T06:04:21.263Z,5.30
2023-10-09T06:06:58.293Z,6.97
2023-10-09T06:09:53.196Z,5.60
2023-10-09T06:12:33.487Z,5.18
2023-10-09T06:15:20.293Z,5.28
2023-10-09T06:17:53.917Z,8.07
2023-10-09T06:21:02.144Z,5.55
2023-10-09T06:23:49.327Z,5.50
2023-10-09T06:26:25.708Z,6.95
2023-10-09T06:29:16.012Z,5.82
2023-10-09T06:32:17.530Z,5.90
2023-10-09T06:34:47.042Z,6.80
2023-10-09T06:37:26.815Z,5.72
2023-10-09T06:39:58.165Z,7.82
2023-10-09T06:42:52.531Z,5.88
2023-10-09T06:45:22.422Z,5.38
2023-10-09T06:47:57.391Z,5.35
2023-10-09T06:50:44.089Z,4.78
2023-10-09T06:53:11.210Z,5.35
2023-10-09T06:55:52.030Z,5.32
2023-10-09T06:58:29.057Z,4.57
2023-10-09T07:01:00.558Z,5.35
2023-10-09T07:03:34.425Z,4.85
2023-10-09T07:06:26.183Z,4.60
2023-10-09T07:09:07.889Z,4.68
2023-10-09T07:11:43.616Z,5.40
2023-10-09T07:14:53.638Z,4.85
2023-10-09T07:19:53.158Z,6.25
2023-10-09T07:22:22.880Z,4.20
2023-10-09T07:25:16.370Z,5.20
2023-10-09T07:27:46.807Z,5.38
2023-10-09T07:30:31.304Z,4.82
2023-10-09T07:33:12.157Z,5.00
2023-10-09T07:35:45.137Z,7.22
2023-10-09T07:38:36.910Z,6.55
2023-10-09T07:41:07.302Z,4.97
2023-10-09T07:43:41.235Z,5.28
2023-10-09T07:46:28.062Z,5.75
2023-10-09T07:48:56.886Z,5.10
2023-10-09T07:51:32.329Z,4.70
2023-10-09T07:54:10.349Z,4.28
2023-10-09T07:56:48.116Z,5.38
2023-10-09T07:59:20.956Z,5.07
2023-10-09T08:01:53.829Z,5.47
2023-10-09T08:04:39.142Z,5.40
2023-10-09T08:08:05.448Z,5.20
2023-10-09T08:10:16.563Z,10.85
2023-10-09T08:12:58.964Z,5.45
2023-10-09T08:15:47.146Z,7.13
2023-10-09T08:18:29.573Z,5.35
2023-10-09T08:20:59.542Z,7.22
2023-10-09T08:23:51.350Z,5.18
2023-10-09T08:26:40.051Z,5.40
2023-10-09T08:29:21.082Z,5.78
2023-10-09T08:31:58.573Z,7.05
2023-10-09T08:36:56.452Z,5.50
2023-10-09T08:39:28.446Z,4.78
2023-10-09T08:42:03.868Z,4.43
2023-10-09T08:44:35.404Z,6.00
2023-10-09T08:47:04.044Z,5.03
2023-10-09T08:49:34.835Z,4.55
2023-10-09T08:52:04.673Z,4.97
2023-10-09T08:54:34.863Z,4.90
2023-10-09T08:57:02.607Z,6.75
2023-10-09T08:59:31.813Z,4.25
2023-10-09T09:02:01.423Z,5.72
2023-10-09T09:04:44.011Z,5.93
2023-10-09T09:07:30.581Z,5.28
2023-10-09T09:10:32.806Z,4.35
2023-10-09T09:13:05.024Z,5.20
2023-10-09T09:15:32.354Z,5.03
2023-10-09T09:18:07.970Z,4.72
2023-10-09T09:20:39.419Z,4.10
2023-10-09T09:23:06.508Z,4.35
2023-10-09T09:25:49.604Z,4.65
2023-10-09T09:28:23.358Z,5.22
2023-10-09T09:30:57.343Z,4.47
2023-10-09T09:33:41.343Z,4.50
2023-10-09T09:36:08.947Z,4.43
2023-10-09T09:38:57.486Z,4.55
2023-10-09T09:41:27.540Z,4.95
2023-10-09T09:44:02.490Z,4.50
2023-10-09T09:46:36.455Z,4.78
2023-10-09T09:49:07.087Z,4.10
2023-10-09T09:51:34.478Z,6.10
2023-10-09T09:54:04.019Z,4.35
2023-10-09T09:56:35.005Z,4.45
2023-10-09T09:59:06.252Z,4.43
2023-10-09T10:01:37.968Z,4.97
2023-10-09T10:04:15.385Z,4.13
2023-10-09T10:06:49.208Z,4.53
2023-10-09T10:09:47.271Z,4.43
2023-10-09T10:12:48.351Z,4.93
2023-10-09T10:15:19.170Z,5.05
2023-10-09T10:18:00.781Z,4.65
2023-10-09T10:20:28.446Z,5.05
2023-10-09T10:23:27.081Z,4.25
2023-10-09T10:26:01.916Z,4.40
2023-10-09T10:28:44.305Z,4.80
2023-10-09T10:31:12.676Z,4.90
2023-10-09T10:33:57.912Z,4.90
2023-10-09T10:36:28.255Z,16.05
2023-10-09T10:39:31.420Z,4.55
2023-10-09T10:42:01.213Z,4.10
2023-10-09T10:44:35.919Z,4.63
2023-10-09T10:47:06.014Z,4.82
2023-10-09T10:49:39.927Z,4.45
2023-10-09T10:52:20.757Z,5.28
2023-10-09T10:54:48.557Z,4.45
2023-10-09T10:57:45.319Z,4.20
2023-10-09T11:00:15.640Z,5.03
2023-10-09T11:02:49.907Z,3.95
2023-10-09T11:05:26.189Z,4.97
2023-10-09T11:07:59.224Z,5.55
2023-10-09T11:10:30.515Z,7.78
2023-10-09T11:13:23.650Z,3.97
2023-10-09T11:16:20.272Z,4.30
2023-10-09T11:18:50.369Z,4.18
2023-10-09T11:21:17.778Z,7.53
2023-10-09T11:23:54.354Z,5.00
2023-10-09T11:26:29.593Z,4.32
2023-10-09T11:29:16.022Z,4.85
2023-10-09T11:31:59.092Z,5.35
2023-10-09T11:34:39.322Z,4.82
2023-10-09T11:37:12.966Z,5.88
2023-10-09T11:39:59.315Z,4.20
2023-10-09T11:42:48.048Z,7.40
2023-10-09T11:45:29.930Z,4.77
2023-10-09T11:48:01.956Z,5.63
2023-10-09T11:51:18.633Z,4.43
2023-10-09T11:53:55.910Z,13.07
2023-10-09T11:56:23.862Z,4.80
2023-10-09T11:58:52.081Z,5.00
2023-10-09T12:01:21.792Z,4.50
2023-10-09T12:06:31.424Z,5.13
2023-10-09T12:08:59.779Z,5.07
2023-10-09T12:11:32.852Z,6.25
2023-10-09T12:14:02.306Z,6.32
2023-10-09T12:16:30.382Z,4.68
2023-10-09T12:18:58.593Z,4.22
2023-10-09T12:21:25.895Z,4.72
2023-10-09T12:23:54.958Z,4.75
2023-10-09T12:26:22.348Z,5.28
2023-10-09T12:28:51.193Z,5.07
2023-10-09T12:31:22.330Z,12.23
2023-10-09T12:33:51.094Z,5.97
2023-10-09T12:36:24.063Z,4.60
2023-10-09T12:38:55.936Z,4.95
2023-10-09T12:41:29.962Z,8.02
2023-10-09T12:43:59.591Z,4.78
2023-10-09T12:46:27.210Z,5.03
2023-10-09T12:48:57.637Z,4.82
2023-10-09T12:51:31.515Z,5.50
2023-10-09T12:53:59.422Z,5.60
2023-10-09T12:56:39.969Z,4.85
2023-10-09T12:59:16.657Z,4.13
2023-10-09T13:01:44.570Z,4.82
2023-10-09T13:04:13.374Z,5.50
2023-10-09T13:06:47.110Z,4.47
2023-10-09T13:09:26.241Z,5.35
2023-10-09T13:11:53.951Z,5.07
2023-10-09T13:14:24.199Z,4.30
2023-10-09T13:16:54.641Z,4.43
2023-10-09T13:19:25.939Z,4.65
2023-10-09T13:21:53.269Z,4.40
2023-10-09T13:24:25.765Z,5.05
2023-10-09T13:26:59.450Z,4.88
2023-10-09T13:29:26.821Z,4.40
2023-10-09T13:31:59.357Z,5.25
2023-10-09T13:34:29.880Z,5.18
2023-10-09T13:37:12.933Z,5.13
2023-10-09T13:39:41.921Z,4.75
2023-10-09T13:42:09.083Z,4.53
2023-10-09T13:44:43.278Z,4.85
2023-10-09T13:47:20.783Z,4.72
2023-10-09T13:49:53.568Z,3.78
2023-10-09T13:52:23.533Z,3.80
2023-10-09T13:54:54.828Z,4.45
2023-10-09T13:57:23.875Z,7.38
2023-10-09T13:59:50.933Z,4.70
2023-10-09T14:02:20.473Z,4.75
2023-10-09T14:04:49.049Z,4.78
2023-10-09T14:07:22.125Z,4.30
2023-10-09T14:10:09.309Z,5.45
2023-10-09T14:12:41.754Z,4.40
2023-10-09T14:15:12.695Z,5.60
2023-10-09T14:20:34.505Z,6.30
2023-10-09T14:23:17.028Z,5.30
2023-10-09T14:25:49.370Z,4.47
2023-10-09T14:28:20.274Z,4.07
2023-10-09T14:30:51.986Z,4.68
2023-10-09T14:33:24.371Z,5.50
2023-10-09T14:35:53.770Z,7.70
2023-10-09T14:38:28.372Z,4.30
2023-10-09T14:40:59.146Z,5.13
2023-10-09T14:43:35.249Z,4.70
2023-10-09T14:46:12.246Z,8.20
2023-10-09T14:48:48.866Z,5.00
2023-10-09T14:51:19.120Z,5.20
2023-10-09T14:53:54.019Z,4.75
2023-10-09T14:56:30.143Z,4.53
2023-10-09T14:59:01.141Z,9.07
2023-10-09T15:01:32.638Z,5.43
2023-10-09T15:04:05.242Z,5.10
2023-10-09T15:06:32.465Z,5.70
2023-10-09T15:09:01.731Z,5.00
2023-10-09T15:11:30.017Z,5.03
2023-10-09T15:13:59.348Z,4.63
2023-10-09T15:16:28.488Z,10.30
2023-10-09T15:18:58.439Z,5.47
2023-10-09T15:21:33.563Z,6.57
2023-10-09T15:24:01.340Z,5.45
2023-10-09T15:26:33.862Z,5.80
2023-10-09T15:29:05.050Z,5.72
2023-10-09T15:31:33.607Z,6.85
2023-10-09T15:34:01.206Z,4.82
2023-10-09T15:36:30.388Z,4.40
2023-10-09T15:39:00.723Z,6.03
2023-10-09T15:41:31.438Z,5.97
2023-10-09T15:44:07.446Z,4.97
2023-10-09T15:46:37.453Z,4.55
2023-10-09T15:49:08.641Z,9.82
2023-10-09T15:51:35.676Z,5.32
2023-10-09T15:54:02.829Z,5.95
2023-10-09T15:56:29.828Z,6.88
2023-10-09T15:58:57.921Z,9.60
2023-10-09T16:01:25.809Z,7.60
2023-10-09T16:03:54.957Z,5.80
2023-10-09T16:06:21.964Z,6.15
2023-10-09T16:08:51.668Z,9.65
2023-10-09T16:13:47.760Z,5.40
2023-10-09T16:16:15.035Z,6.65
2023-10-09T16:18:42.185Z,6.72
2023-10-09T16:21:13.878Z,6.93
2023-10-09T16:23:43.779Z,6.25
2023-10-09T16:28:38.283Z,6.47
2023-10-09T16:31:13.758Z,5.97
2023-10-09T16:33:41.386Z,6.18
2023-10-09T16:36:08.529Z,5.63
2023-10-09T16:38:40.743Z,12.32
2023-10-09T16:41:11.360Z,7.90
2023-10-09T16:43:38.820Z,6.95
2023-10-09T16:46:15.508Z,6.72
2023-10-09T16:48:43.136Z,5.75
2023-10-09T16:51:13.545Z,8.60
2023-10-09T16:53:40.742Z,7.82
2023-10-09T16:56:16.829Z,6.18
2023-10-09T16:58:44.100Z,10.27
2023-10-09T17:01:15.373Z,6.40
2023-10-09T17:03:48.934Z,9.02
2023-10-09T17:06:19.305Z,7.30
2023-10-09T17:08:49.362Z,9.02
2023-10-09T17:11:21.419Z,8.20
2023-10-09T17:13:50.713Z,9.55
2023-10-09T17:16:23.011Z,7.03
2023-10-09T17:18:55.989Z,7.55
2023-10-09T17:21:25.079Z,7.82
2023-10-09T17:23:55.582Z,10.60
2023-10-09T17:26:24.153Z,7.15
2023-10-09T17:28:55.271Z,6.85
2023-10-09T17:31:27.535Z,13.40
2023-10-09T17:33:58.666Z,8.30
2023-10-09T17:36:32.575Z,8.45
2023-10-09T17:39:06.769Z,10.60
2023-10-09T17:42:11.961Z,13.63
2023-10-09T17:44:40.212Z,11.32
2023-10-09T17:47:07.623Z,8.30
2023-10-09T17:49:35.842Z,9.95
2023-10-09T17:52:07.369Z,12.93
2023-10-09T17:54:35.870Z,10.10
2023-10-09T17:57:03.133Z,10.65
2023-10-09T17:59:30.244Z,10.50
2023-10-09T18:01:58.654Z,10.98
2023-10-09T18:04:25.880Z,11.85
2023-10-09T18:06:55.897Z,8.75
2023-10-09T18:09:23.186Z,10.32
2023-10-09T18:11:50.122Z,8.23
2023-10-09T18:14:18.268Z,9.65
2023-10-09T18:16:46.482Z,12.35
2023-10-09T18:19:16.074Z,10.93
2023-10-09T18:21:43.171Z,8.15
2023-10-09T18:24:15.571Z,10.05
2023-10-09T18:26:43.329Z,8.25
2023-10-09T18:29:10.386Z,8.55
2023-10-09T18:31:37.663Z,8.15
2023-10-09T18:34:08.938Z,10.93
2023-10-09T18:36:37.715Z,8.23
2023-10-09T18:39:05.330Z,9.77
2023-10-09T18:41:32.410Z,8.57
2023-10-09T18:44:02.267Z,10.68
2023-10-09T18:46:29.343Z,12.57
2023-10-09T18:49:01.990Z,10.25
2023-10-09T18:51:30.979Z,11.27
2023-10-09T18:54:01.968Z,11.02
2023-10-09T18:56:29.864Z,15.50
2023-10-09T18:58:58.019Z,10.18
2023-10-09T19:01:25.184Z,10.57
2023-10-09T19:03:52.365Z,7.80
2023-10-09T19:06:20.009Z,7.45
2023-10-09T19:08:49.899Z,8.20
2023-10-09T19:11:22.377Z,7.43
2023-10-09T19:13:49.701Z,7.72
2023-10-09T19:16:17.064Z,8.50
2023-10-09T19:18:44.231Z,6.93
2023-10-09T19:21:12.287Z,10.43
2023-10-09T19:23:42.825Z,9.98
2023-10-09T19:26:10.805Z,7.32
2023-10-09T19:28:40.956Z,8.32
2023-10-09T19:31:12.951Z,7.78
2023-10-09T19:33:43.254Z,7.20
2023-10-09T19:36:24.928Z,6.80
2023-10-09T19:38:52.078Z,6.47
2023-10-09T19:41:24.283Z,7.50
2023-10-09T19:43:53.595Z,5.57
2023-10-09T19:46:20.997Z,7.20
2023-10-09T19:48:48.933Z,6.20
2023-10-09T19:51:19.146Z,6.70
2023-10-09T19:53:46.642Z,6.20
2023-10-09T19:56:14.302Z,5.28
2023-10-09T19:58:42.392Z,5.65
2023-10-09T20:01:11.298Z,5.88
2023-10-09T20:03:38.697Z,6.63
2023-10-09T20:06:06.370Z,6.53
2023-10-09T20:08:37.137Z,6.03
2023-10-09T20:11:11.346Z,5.95
2023-10-09T20:13:38.492Z,8.57
2023-10-09T20:16:09.677Z,6.75
2023-10-09T20:18:37.815Z,7.32
2023-10-09T20:21:11.171Z,6.00
2023-10-09T20:23:42.416Z,6.90
2023-10-09T20:26:16.333Z,7.25
2023-10-09T20:28:47.232Z,7.18
2023-10-09T20:31:14.567Z,10.05
2023-10-09T20:33:58.722Z,6.25
2023-10-09T20:36:29.562Z,7.53
2023-10-09T20:38:56.705Z,6.32
2023-10-09T20:41:24.618Z,7.82
2023-10-09T20:43:52.034Z,8.32
2023-10-09T20:46:19.141Z,6.90
2023-10-09T20:48:47.182Z,7.32
2023-10-09T20:51:16.758Z,8.25
2023-10-09T20:53:44.128Z,9.52
2023-10-09T20:56:12.229Z,10.10
2023-10-09T20:58:44.582Z,9.80
2023-10-09T21:01:18.500Z,9.82
2023-10-09T21:03:47.600Z,8.43
2023-10-09T21:06:15.107Z,9.80
2023-10-09T21:08:43.165Z,8.93
2023-10-09T21:11:10.949Z,8.90
2023-10-09T21:13:39.045Z,10.32
2023-10-09T21:16:16.034Z,9.30
2023-10-09T21:18:47.225Z,11.65
2023-10-09T21:21:16.580Z,8.40
2023-10-09T21:23:46.901Z,7.32
2023-10-09T21:26:21.062Z,7.68
2023-10-09T21:28:49.438Z,7.65
2023-10-09T21:31:17.371Z,7.55
2023-10-09T21:33:45.242Z,9.05
2023-10-09T21:36:13.050Z,7.13
2023-10-09T21:38:40.128Z,6.68
2023-10-09T21:41:14.516Z,8.65
2023-10-09T21:43:42.334Z,7.82
2023-10-09T21:46:11.162Z,7.63
2023-10-09T21:48:40.627Z,10.63
2023-10-09T21:51:18.068Z,8.32
2023-10-09T21:53:46.327Z,6.70
2023-10-09T21:56:15.818Z,8.45
2023-10-09T22:01:13.355Z,7.88
2023-10-09T22:06:11.652Z,6.85
2023-10-09T22:11:10.110Z,8.23
2023-10-09T22:13:37.389Z,7.25
2023-10-09T22:16:06.564Z,9.52
2023-10-09T22:18:36.345Z,15.35
2023-10-09T22:21:11.260Z,7.80
2023-10-09T22:23:47.118Z,8.38
2023-10-09T22:26:26.252Z,6.60
2023-10-09T22:28:53.301Z,8.47
2023-10-09T22:31:22.232Z,9.18
2023-10-09T22:33:55.588Z,6.78
2023-10-09T22:36:42.437Z,9.45
2023-10-09T22:39:47.644Z,7.07
2023-10-09T22:42:18.396Z,8.90
2023-10-09T22:44:49.084Z,5.63
2023-10-09T22:47:16.230Z,6.55
2023-10-09T22:49:54.367Z,6.63
2023-10-09T22:52:25.183Z,7.25
2023-10-09T22:54:54.826Z,8.00
2023-10-09T23:00:01.855Z,6.15
2023-10-09T23:02:44.625Z,6.07
2023-10-09T23:05:14.301Z,8.38
2023-10-09T23:07:43.262Z,6.43
2023-10-09T23:10:16.848Z,5.95
2023-10-09T23:12:47.714Z,5.85
2023-10-09T23:15:32.278Z,7.63
2023-10-09T23:18:19.790Z,6.05
2023-10-09T23:21:27.501Z,5.25
2023-10-09T23:24:31.011Z,10.18
2023-10-09T23:27:29.631Z,9.02
2023-10-09T23:30:34.775Z,6.75
2023-10-09T23:33:24.194Z,5.32
2023-10-09T23:35:56.711Z,5.53
2023-10-09T23:38:35.125Z,6.88
2023-10-09T23:41:14.308Z,5.82
2023-10-09T23:43:55.670Z,6.07
2023-10-09T23:46:48.849Z,7.05
2023-10-09T23:49:28.991Z,5.90
2023-10-09T23:52:10.098Z,8.15
2023-10-09T23:54:44.329Z,10.00
2023-10-09T23:57:19.373Z,10.18
